sensor_id;sensor_type;location;lat;lon;timestamp;P1;durP1;ratioP1;P2;durP2;ratioP2
37411;SDS011;23278;52.110;6.050;2023-03-23T00:01:57;11.57;;;5.68;;
37411;SDS011;23278;52.110;6.050;2023-03-23T00:04:23;9.75;;;5.40;;
37411;SDS011;23278;52.110;6.050;2023-03-23T00:06:52;7.13;;;4.53;;
37411;SDS011;23278;52.110;6.050;2023-03-23T00:09:18;8.30;;;4.40;;
37411;SDS011;23278;52.110;6.050;2023-03-23T00:11:49;9.63;;;4.57;;
37411;SDS011;23278;52.110;6.050;2023-03-23T00:14:16;9.48;;;4.10;;
37411;SDS011;23278;52.110;6.050;2023-03-23T00:16:47;6.32;;;4.55;;
37411;SDS011;23278;52.110;6.050;2023-03-23T00:19:15;6.30;;;4.75;;
37411;SDS011;23278;52.110;6.050;2023-03-23T00:21:41;10.02;;;4.72;;
37411;SDS011;23278;52.110;6.050;2023-03-23T00:24:10;9.90;;;4.18;;
37411;SDS011;23278;52.110;6.050;2023-03-23T00:26:38;7.97;;;4.43;;
37411;SDS011;23278;52.110;6.050;2023-03-23T00:29:19;7.70;;;4.35;;
37411;SDS011;23278;52.110;6.050;2023-03-23T00:31:49;8.00;;;3.72;;
37411;SDS011;23278;52.110;6.050;2023-03-23T00:34:19;5.75;;;4.05;;
37411;SDS011;23278;52.110;6.050;2023-03-23T00:36:47;7.03;;;4.57;;
37411;SDS011;23278;52.110;6.050;2023-03-23T00:39:15;7.03;;;4.47;;
37411;SDS011;23278;52.110;6.050;2023-03-23T00:41:43;6.53;;;3.38;;
37411;SDS011;23278;52.110;6.050;2023-03-23T00:44:09;7.80;;;4.40;;
37411;SDS011;23278;52.110;6.050;2023-03-23T00:46:45;7.00;;;3.83;;
37411;SDS011;23278;52.110;6.050;2023-03-23T00:49:18;10.27;;;3.65;;
37411;SDS011;23278;52.110;6.050;2023-03-23T00:51:47;10.02;;;4.72;;
37411;SDS011;23278;52.110;6.050;2023-03-23T00:54:12;7.22;;;3.38;;
37411;SDS011;23278;52.110;6.050;2023-03-23T00:56:38;5.40;;;3.35;;
37411;SDS011;23278;52.110;6.050;2023-03-23T00:59:05;10.00;;;3.60;;
37411;SDS011;23278;52.110;6.050;2023-03-23T01:01:31;11.18;;;3.97;;
37411;SDS011;23278;52.110;6.050;2023-03-23T01:03:58;11.20;;;4.50;;
37411;SDS011;23278;52.110;6.050;2023-03-23T01:06:36;8.52;;;3.65;;
37411;SDS011;23278;52.110;6.050;2023-03-23T01:09:15;5.60;;;3.15;;
37411;SDS011;23278;52.110;6.050;2023-03-23T01:11:42;4.82;;;3.28;;
37411;SDS011;23278;52.110;6.050;2023-03-23T01:14:13;6.50;;;3.70;;
37411;SDS011;23278;52.110;6.050;2023-03-23T01:16:40;5.60;;;3.53;;
37411;SDS011;23278;52.110;6.050;2023-03-23T01:19:06;7.50;;;2.88;;
37411;SDS011;23278;52.110;6.050;2023-03-23T01:21:33;8.82;;;4.28;;
37411;SDS011;23278;52.110;6.050;2023-03-23T01:23:59;6.82;;;3.95;;
37411;SDS011;23278;52.110;6.050;2023-03-23T01:26:25;9.57;;;4.13;;
37411;SDS011;23278;52.110;6.050;2023-03-23T01:28:53;5.85;;;3.70;;
37411;SDS011;23278;52.110;6.050;2023-03-23T01:31:21;7.13;;;4.07;;
37411;SDS011;23278;52.110;6.050;2023-03-23T01:33:49;6.53;;;3.83;;
37411;SDS011;23278;52.110;6.050;2023-03-23T01:36:17;5.60;;;3.30;;
37411;SDS011;23278;52.110;6.050;2023-03-23T01:38:47;9.32;;;4.60;;
37411;SDS011;23278;52.110;6.050;2023-03-23T01:41:15;6.63;;;4.30;;
37411;SDS011;23278;52.110;6.050;2023-03-23T01:46:50;6.00;;;3.38;;
37411;SDS011;23278;52.110;6.050;2023-03-23T01:49:17;8.45;;;3.80;;
37411;SDS011;23278;52.110;6.050;2023-03-23T01:51:48;5.90;;;3.13;;
37411;SDS011;23278;52.110;6.050;2023-03-23T01:54:24;6.57;;;3.70;;
37411;SDS011;23278;52.110;6.050;2023-03-23T01:56:54;4.75;;;3.40;;
37411;SDS011;23278;52.110;6.050;2023-03-23T01:59:24;5.43;;;3.13;;
37411;SDS011;23278;52.110;6.050;2023-03-23T02:02:11;5.93;;;3.10;;
37411;SDS011;23278;52.110;6.050;2023-03-23T02:04:38;5.22;;;2.83;;
37411;SDS011;23278;52.110;6.050;2023-03-23T02:07:07;5.70;;;3.33;;
37411;SDS011;23278;52.110;6.050;2023-03-23T02:09:33;5.53;;;4.03;;
37411;SDS011;23278;52.110;6.050;2023-03-23T02:11:59;4.32;;;2.92;;
37411;SDS011;23278;52.110;6.050;2023-03-23T02:14:26;5.65;;;3.10;;
37411;SDS011;23278;52.110;6.050;2023-03-23T02:33:50;3.63;;;3.08;;
37411;SDS011;23278;52.110;6.050;2023-03-23T02:36:30;5.50;;;3.55;;
37411;SDS011;23278;52.110;6.050;2023-03-23T02:39:13;4.82;;;3.17;;
37411;SDS011;23278;52.110;6.050;2023-03-23T02:42:26;6.57;;;3.70;;
37411;SDS011;23278;52.110;6.050;2023-03-23T02:44:34;5.95;;;3.17;;
37411;SDS011;23278;52.110;6.050;2023-03-23T02:47:04;3.95;;;3.53;;
37411;SDS011;23278;52.110;6.050;2023-03-23T02:49:34;4.75;;;3.45;;
37411;SDS011;23278;52.110;6.050;2023-03-23T02:52:04;5.63;;;2.63;;
37411;SDS011;23278;52.110;6.050;2023-03-23T02:54:33;6.05;;;3.03;;
37411;SDS011;23278;52.110;6.050;2023-03-23T02:57:01;3.70;;;2.75;;
37411;SDS011;23278;52.110;6.050;2023-03-23T02:59:29;4.45;;;2.80;;
37411;SDS011;23278;52.110;6.050;2023-03-23T03:01:58;5.43;;;3.10;;
37411;SDS011;23278;52.110;6.050;2023-03-23T03:04:30;5.45;;;3.25;;
37411;SDS011;23278;52.110;6.050;2023-03-23T03:07:02;3.47;;;2.78;;
37411;SDS011;23278;52.110;6.050;2023-03-23T03:09:37;5.35;;;3.25;;
37411;SDS011;23278;52.110;6.050;2023-03-23T03:12:30;7.47;;;3.10;;
37411;SDS011;23278;52.110;6.050;2023-03-23T03:20:40;3.97;;;3.53;;
37411;SDS011;23278;52.110;6.050;2023-03-23T03:23:13;3.38;;;3.05;;
37411;SDS011;23278;52.110;6.050;2023-03-23T03:25:43;5.32;;;4.32;;
37411;SDS011;23278;52.110;6.050;2023-03-23T03:28:19;5.22;;;2.70;;
37411;SDS011;23278;52.110;6.050;2023-03-23T03:30:49;5.78;;;3.30;;
37411;SDS011;23278;52.110;6.050;2023-03-23T03:33:21;5.13;;;3.20;;
37411;SDS011;23278;52.110;6.050;2023-03-23T03:35:53;4.53;;;3.05;;
37411;SDS011;23278;52.110;6.050;2023-03-23T03:38:21;5.18;;;2.88;;
37411;SDS011;23278;52.110;6.050;2023-03-23T03:40:48;6.95;;;3.38;;
37411;SDS011;23278;52.110;6.050;2023-03-23T03:43:15;4.53;;;2.95;;
37411;SDS011;23278;52.110;6.050;2023-03-23T03:45:41;4.93;;;2.97;;
37411;SDS011;23278;52.110;6.050;2023-03-23T03:48:10;4.63;;;2.50;;
37411;SDS011;23278;52.110;6.050;2023-03-23T03:50:36;3.83;;;3.25;;
37411;SDS011;23278;52.110;6.050;2023-03-23T03:53:03;3.83;;;2.65;;
37411;SDS011;23278;52.110;6.050;2023-03-23T03:55:31;4.28;;;2.67;;
37411;SDS011;23278;52.110;6.050;2023-03-23T03:58:02;5.32;;;2.83;;
37411;SDS011;23278;52.110;6.050;2023-03-23T04:00:55;4.15;;;2.58;;
37411;SDS011;23278;52.110;6.050;2023-03-23T04:03:25;3.97;;;2.60;;
37411;SDS011;23278;52.110;6.050;2023-03-23T04:06:02;13.50;;;4.55;;
37411;SDS011;23278;52.110;6.050;2023-03-23T04:08:29;6.60;;;2.45;;
37411;SDS011;23278;52.110;6.050;2023-03-23T04:10:55;4.95;;;2.63;;
37411;SDS011;23278;52.110;6.050;2023-03-23T04:13:22;3.67;;;2.53;;
37411;SDS011;23278;52.110;6.050;2023-03-23T04:16:04;4.10;;;2.90;;
37411;SDS011;23278;52.110;6.050;2023-03-23T04:18:31;3.10;;;2.33;;
37411;SDS011;23278;52.110;6.050;2023-03-23T04:21:02;4.47;;;2.97;;
37411;SDS011;23278;52.110;6.050;2023-03-23T04:23:30;5.95;;;2.97;;
37411;SDS011;23278;52.110;6.050;2023-03-23T04:26:00;3.70;;;3.00;;
37411;SDS011;23278;52.110;6.050;2023-03-23T04:28:33;4.00;;;2.90;;
37411;SDS011;23278;52.110;6.050;2023-03-23T04:31:25;5.10;;;2.88;;
37411;SDS011;23278;52.110;6.050;2023-03-23T04:33:58;5.05;;;2.38;;
37411;SDS011;23278;52.110;6.050;2023-03-23T04:36:27;4.15;;;2.47;;
37411;SDS011;23278;52.110;6.050;2023-03-23T04:39:03;3.65;;;2.42;;
37411;SDS011;23278;52.110;6.050;2023-03-23T04:41:32;6.55;;;3.53;;
37411;SDS011;23278;52.110;6.050;2023-03-23T04:44:34;5.30;;;2.40;;
37411;SDS011;23278;52.110;6.050;2023-03-23T04:47:06;4.82;;;2.80;;
37411;SDS011;23278;52.110;6.050;2023-03-23T04:49:36;2.88;;;2.08;;
37411;SDS011;23278;52.110;6.050;2023-03-23T04:52:24;2.83;;;2.33;;
37411;SDS011;23278;52.110;6.050;2023-03-23T04:54:55;4.28;;;2.17;;
37411;SDS011;23278;52.110;6.050;2023-03-23T04:57:24;3.15;;;2.05;;
37411;SDS011;23278;52.110;6.050;2023-03-23T05:00:22;7.03;;;2.35;;
37411;SDS011;23278;52.110;6.050;2023-03-23T05:02:52;3.13;;;1.85;;
37411;SDS011;23278;52.110;6.050;2023-03-23T05:05:24;5.32;;;2.00;;
37411;SDS011;23278;52.110;6.050;2023-03-23T05:07:53;6.88;;;2.30;;
37411;SDS011;23278;52.110;6.050;2023-03-23T05:10:22;4.85;;;2.67;;
37411;SDS011;23278;52.110;6.050;2023-03-23T05:12:52;5.97;;;1.63;;
37411;SDS011;23278;52.110;6.050;2023-03-23T05:15:18;4.60;;;2.08;;
37411;SDS011;23278;52.110;6.050;2023-03-23T05:17:44;7.35;;;2.25;;
37411;SDS011;23278;52.110;6.050;2023-03-23T05:20:14;9.10;;;2.22;;
37411;SDS011;23278;52.110;6.050;2023-03-23T05:22:52;4.40;;;1.58;;
37411;SDS011;23278;52.110;6.050;2023-03-23T05:25:24;6.32;;;1.73;;
37411;SDS011;23278;52.110;6.050;2023-03-23T05:27:57;4.72;;;2.60;;
37411;SDS011;23278;52.110;6.050;2023-03-23T05:30:45;5.53;;;2.42;;
37411;SDS011;23278;52.110;6.050;2023-03-23T05:33:13;4.47;;;1.42;;
37411;SDS011;23278;52.110;6.050;2023-03-23T05:36:02;5.72;;;1.42;;
37411;SDS011;23278;52.110;6.050;2023-03-23T05:38:35;6.43;;;1.38;;
37411;SDS011;23278;52.110;6.050;2023-03-23T05:41:04;5.25;;;1.95;;
37411;SDS011;23278;52.110;6.050;2023-03-23T05:43:36;5.30;;;2.33;;
37411;SDS011;23278;52.110;6.050;2023-03-23T05:46:16;7.88;;;1.77;;
37411;SDS011;23278;52.110;6.050;2023-03-23T05:48:43;7.68;;;2.22;;
37411;SDS011;23278;52.110;6.050;2023-03-23T05:51:14;7.10;;;1.48;;
37411;SDS011;23278;52.110;6.050;2023-03-23T05:53:42;7.60;;;1.90;;
37411;SDS011;23278;52.110;6.050;2023-03-23T05:56:10;5.38;;;1.45;;
37411;SDS011;23278;52.110;6.050;2023-03-23T05:58:51;5.78;;;1.80;;
37411;SDS011;23278;52.110;6.050;2023-03-23T06:01:19;5.28;;;1.80;;
37411;SDS011;23278;52.110;6.050;2023-03-23T06:03:45;8.77;;;1.45;;
37411;SDS011;23278;52.110;6.050;2023-03-23T06:06:19;6.95;;;2.22;;
37411;SDS011;23278;52.110;6.050;2023-03-23T06:09:06;8.90;;;1.90;;
37411;SDS011;23278;52.110;6.050;2023-03-23T06:12:01;8.70;;;1.58;;
37411;SDS011;23278;52.110;6.050;2023-03-23T06:14:40;6.53;;;1.30;;
37411;SDS011;23278;52.110;6.050;2023-03-23T06:17:07;5.85;;;1.33;;
37411;SDS011;23278;52.110;6.050;2023-03-23T06:19:33;3.88;;;1.15;;
37411;SDS011;23278;52.110;6.050;2023-03-23T06:22:12;5.43;;;1.45;;
37411;SDS011;23278;52.110;6.050;2023-03-23T06:24:44;8.43;;;2.05;;
37411;SDS011;23278;52.110;6.050;2023-03-23T06:27:13;4.15;;;1.48;;
37411;SDS011;23278;52.110;6.050;2023-03-23T06:29:41;4.85;;;1.23;;
37411;SDS011;23278;52.110;6.050;2023-03-23T06:32:09;7.47;;;1.58;;
37411;SDS011;23278;52.110;6.050;2023-03-23T06:34:38;3.40;;;1.08;;
37411;SDS011;23278;52.110;6.050;2023-03-23T06:37:24;9.35;;;1.38;;
37411;SDS011;23278;52.110;6.050;2023-03-23T06:40:16;11.02;;;1.17;;
37411;SDS011;23278;52.110;6.050;2023-03-23T06:42:49;5.25;;;1.40;;
37411;SDS011;23278;52.110;6.050;2023-03-23T06:45:38;5.95;;;1.10;;
37411;SDS011;23278;52.110;6.050;2023-03-23T06:48:30;6.88;;;1.27;;
37411;SDS011;23278;52.110;6.050;2023-03-23T06:50:56;3.47;;;1.02;;
37411;SDS011;23278;52.110;6.050;2023-03-23T06:53:25;3.08;;;1.08;;
37411;SDS011;23278;52.110;6.050;2023-03-23T06:55:53;5.47;;;1.80;;
37411;SDS011;23278;52.110;6.050;2023-03-23T06:58:19;6.57;;;1.88;;
37411;SDS011;23278;52.110;6.050;2023-03-23T07:00:44;3.88;;;1.05;;
37411;SDS011;23278;52.110;6.050;2023-03-23T07:03:14;5.88;;;0.90;;
37411;SDS011;23278;52.110;6.050;2023-03-23T07:05:40;6.28;;;1.65;;
37411;SDS011;23278;52.110;6.050;2023-03-23T07:08:09;5.28;;;1.85;;
37411;SDS011;23278;52.110;6.050;2023-03-23T07:10:46;4.43;;;0.95;;
37411;SDS011;23278;52.110;6.050;2023-03-23T07:13:16;5.07;;;1.27;;
37411;SDS011;23278;52.110;6.050;2023-03-23T07:15:48;4.55;;;0.80;;
37411;SDS011;23278;52.110;6.050;2023-03-23T07:18:16;9.88;;;1.27;;
37411;SDS011;23278;52.110;6.050;2023-03-23T07:20:49;8.95;;;2.03;;
37411;SDS011;23278;52.110;6.050;2023-03-23T07:26:00;6.38;;;1.55;;
37411;SDS011;23278;52.110;6.050;2023-03-23T07:28:34;5.75;;;1.33;;
37411;SDS011;23278;52.110;6.050;2023-03-23T07:31:10;6.90;;;1.40;;
37411;SDS011;23278;52.110;6.050;2023-03-23T07:33:36;7.65;;;1.45;;
37411;SDS011;23278;52.110;6.050;2023-03-23T07:36:03;5.40;;;1.88;;
37411;SDS011;23278;52.110;6.050;2023-03-23T07:38:29;7.18;;;1.17;;
37411;SDS011;23278;52.110;6.050;2023-03-23T07:40:57;6.75;;;1.60;;
37411;SDS011;23278;52.110;6.050;2023-03-23T07:43:24;6.47;;;2.00;;
37411;SDS011;23278;52.110;6.050;2023-03-23T07:46:08;6.72;;;1.42;;
37411;SDS011;23278;52.110;6.050;2023-03-23T07:48:49;3.50;;;1.02;;
37411;SDS011;23278;52.110;6.050;2023-03-23T07:51:17;6.55;;;1.30;;
37411;SDS011;23278;52.110;6.050;2023-03-23T07:53:46;7.22;;;1.48;;
37411;SDS011;23278;52.110;6.050;2023-03-23T07:56:44;7.18;;;1.52;;
37411;SDS011;23278;52.110;6.050;2023-03-23T07:59:17;8.52;;;1.10;;
37411;SDS011;23278;52.110;6.050;2023-03-23T08:01:43;5.20;;;0.90;;
37411;SDS011;23278;52.110;6.050;2023-03-23T08:04:29;12.65;;;1.83;;
37411;SDS011;23278;52.110;6.050;2023-03-23T08:07:24;5.40;;;1.30;;
37411;SDS011;23278;52.110;6.050;2023-03-23T08:09:59;8.20;;;1.35;;
37411;SDS011;23278;52.110;6.050;2023-03-23T08:12:37;5.80;;;1.08;;
37411;SDS011;23278;52.110;6.050;2023-03-23T08:15:18;8.23;;;2.97;;
37411;SDS011;23278;52.110;6.050;2023-03-23T08:17:47;4.47;;;1.20;;
37411;SDS011;23278;52.110;6.050;2023-03-23T08:20:33;6.07;;;1.10;;
37411;SDS011;23278;52.110;6.050;2023-03-23T08:23:11;5.40;;;0.98;;
37411;SDS011;23278;52.110;6.050;2023-03-23T08:25:56;10.40;;;1.17;;
37411;SDS011;23278;52.110;6.050;2023-03-23T08:28:31;6.47;;;0.90;;
37411;SDS011;23278;52.110;6.050;2023-03-23T08:31:16;4.88;;;2.55;;
37411;SDS011;23278;52.110;6.050;2023-03-23T08:34:01;5.00;;;1.65;;
37411;SDS011;23278;52.110;6.050;2023-03-23T08:36:36;5.32;;;1.55;;
37411;SDS011;23278;52.110;6.050;2023-03-23T08:39:16;4.07;;;1.10;;
37411;SDS011;23278;52.110;6.050;2023-03-23T08:42:09;8.38;;;2.08;;
37411;SDS011;23278;52.110;6.050;2023-03-23T08:44:48;5.57;;;1.65;;
37411;SDS011;23278;52.110;6.050;2023-03-23T08:47:50;5.20;;;1.57;;
37411;SDS011;23278;52.110;6.050;2023-03-23T08:50:41;4.35;;;1.95;;
37411;SDS011;23278;52.110;6.050;2023-03-23T08:53:24;7.10;;;1.45;;
37411;SDS011;23278;52.110;6.050;2023-03-23T08:56:03;5.95;;;1.75;;
37411;SDS011;23278;52.110;6.050;2023-03-23T08:58:56;5.32;;;1.40;;
37411;SDS011;23278;52.110;6.050;2023-03-23T09:01:39;7.70;;;1.15;;
37411;SDS011;23278;52.110;6.050;2023-03-23T09:04:20;3.75;;;0.70;;
37411;SDS011;23278;52.110;6.050;2023-03-23T09:06:47;3.92;;;1.23;;
37411;SDS011;23278;52.110;6.050;2023-03-23T09:09:13;3.78;;;1.10;;
37411;SDS011;23278;52.110;6.050;2023-03-23T09:11:39;6.40;;;1.52;;
37411;SDS011;23278;52.110;6.050;2023-03-23T09:14:05;5.78;;;1.15;;
37411;SDS011;23278;52.110;6.050;2023-03-23T09:16:32;4.70;;;2.08;;
37411;SDS011;23278;52.110;6.050;2023-03-23T09:18:59;4.80;;;0.90;;
37411;SDS011;23278;52.110;6.050;2023-03-23T09:21:26;7.10;;;1.27;;
37411;SDS011;23278;52.110;6.050;2023-03-23T09:23:53;6.28;;;1.10;;
37411;SDS011;23278;52.110;6.050;2023-03-23T09:26:24;3.42;;;1.00;;
37411;SDS011;23278;52.110;6.050;2023-03-23T09:28:51;3.75;;;1.10;;
37411;SDS011;23278;52.110;6.050;2023-03-23T09:31:17;5.30;;;1.35;;
37411;SDS011;23278;52.110;6.050;2023-03-23T09:33:47;5.10;;;1.25;;
37411;SDS011;23278;52.110;6.050;2023-03-23T09:36:17;3.50;;;1.45;;
37411;SDS011;23278;52.110;6.050;2023-03-23T09:38:46;6.15;;;1.58;;
37411;SDS011;23278;52.110;6.050;2023-03-23T09:41:19;3.95;;;1.00;;
37411;SDS011;23278;52.110;6.050;2023-03-23T09:44:34;5.18;;;0.93;;
37411;SDS011;23278;52.110;6.050;2023-03-23T09:50:09;3.42;;;0.90;;
37411;SDS011;23278;52.110;6.050;2023-03-23T09:52:49;2.53;;;0.83;;
37411;SDS011;23278;52.110;6.050;2023-03-23T09:55:21;6.35;;;1.15;;
37411;SDS011;23278;52.110;6.050;2023-03-23T10:00:36;3.60;;;0.77;;
37411;SDS011;23278;52.110;6.050;2023-03-23T10:03:18;4.35;;;0.82;;
37411;SDS011;23278;52.110;6.050;2023-03-23T10:05:53;5.13;;;1.05;;
37411;SDS011;23278;52.110;6.050;2023-03-23T10:16:15;6.25;;;0.95;;
37411;SDS011;23278;52.110;6.050;2023-03-23T10:18:47;3.08;;;1.05;;
37411;SDS011;23278;52.110;6.050;2023-03-23T10:21:23;6.13;;;1.20;;
37411;SDS011;23278;52.110;6.050;2023-03-23T10:23:51;4.60;;;1.73;;
37411;SDS011;23278;52.110;6.050;2023-03-23T10:29:15;2.42;;;0.90;;
37411;SDS011;23278;52.110;6.050;2023-03-23T10:31:44;6.00;;;0.82;;
37411;SDS011;23278;52.110;6.050;2023-03-23T10:39:55;6.65;;;1.08;;
37411;SDS011;23278;52.110;6.050;2023-03-23T10:42:25;4.88;;;0.80;;
37411;SDS011;23278;52.110;6.050;2023-03-23T10:44:51;3.67;;;1.20;;
37411;SDS011;23278;52.110;6.050;2023-03-23T10:47:18;4.75;;;1.10;;
37411;SDS011;23278;52.110;6.050;2023-03-23T10:49:49;3.35;;;1.05;;
37411;SDS011;23278;52.110;6.050;2023-03-23T10:57:38;3.33;;;1.13;;
37411;SDS011;23278;52.110;6.050;2023-03-23T11:00:19;8.20;;;1.05;;
37411;SDS011;23278;52.110;6.050;2023-03-23T11:02:58;6.95;;;1.92;;
37411;SDS011;23278;52.110;6.050;2023-03-23T11:05:32;5.45;;;1.75;;
37411;SDS011;23278;52.110;6.050;2023-03-23T11:07:59;7.38;;;1.48;;
37411;SDS011;23278;52.110;6.050;2023-03-23T11:10:27;4.88;;;1.20;;
37411;SDS011;23278;52.110;6.050;2023-03-23T11:13:03;3.90;;;0.88;;
37411;SDS011;23278;52.110;6.050;2023-03-23T11:15:34;6.72;;;2.38;;
37411;SDS011;23278;52.110;6.050;2023-03-23T11:20:34;6.07;;;1.60;;
37411;SDS011;23278;52.110;6.050;2023-03-23T11:23:21;4.82;;;1.13;;
37411;SDS011;23278;52.110;6.050;2023-03-23T11:28:25;7.65;;;1.52;;
37411;SDS011;23278;52.110;6.050;2023-03-23T11:31:01;5.32;;;1.25;;
37411;SDS011;23278;52.110;6.050;2023-03-23T11:33:29;6.97;;;1.20;;
37411;SDS011;23278;52.110;6.050;2023-03-23T11:36:00;7.97;;;1.95;;
37411;SDS011;23278;52.110;6.050;2023-03-23T11:38:26;7.63;;;1.95;;
37411;SDS011;23278;52.110;6.050;2023-03-23T11:40:53;5.03;;;1.08;;
37411;SDS011;23278;52.110;6.050;2023-03-23T11:43:20;3.85;;;1.50;;
37411;SDS011;23278;52.110;6.050;2023-03-23T11:48:34;8.50;;;1.50;;
37411;SDS011;23278;52.110;6.050;2023-03-23T11:59:00;11.00;;;1.60;;
37411;SDS011;23278;52.110;6.050;2023-03-23T12:07:10;5.53;;;0.98;;
37411;SDS011;23278;52.110;6.050;2023-03-23T12:15:14;10.85;;;1.85;;
37411;SDS011;23278;52.110;6.050;2023-03-23T12:17:51;7.47;;;1.30;;
37411;SDS011;23278;52.110;6.050;2023-03-23T12:20:29;6.53;;;2.27;;
37411;SDS011;23278;52.110;6.050;2023-03-23T12:28:36;5.57;;;1.40;;
37411;SDS011;23278;52.110;6.050;2023-03-23T12:31:45;4.95;;;1.45;;
37411;SDS011;23278;52.110;6.050;2023-03-23T12:34:47;6.88;;;1.50;;
37411;SDS011;23278;52.110;6.050;2023-03-23T12:37:38;5.22;;;0.90;;
37411;SDS011;23278;52.110;6.050;2023-03-23T12:40:50;7.15;;;1.52;;
37411;SDS011;23278;52.110;6.050;2023-03-23T12:43:57;4.13;;;1.13;;
37411;SDS011;23278;52.110;6.050;2023-03-23T12:49:05;7.35;;;1.65;;
37411;SDS011;23278;52.110;6.050;2023-03-23T12:51:48;9.05;;;1.98;;
37411;SDS011;23278;52.110;6.050;2023-03-23T12:54:42;9.18;;;1.08;;
37411;SDS011;23278;52.110;6.050;2023-03-23T12:57:13;6.18;;;0.95;;
37411;SDS011;23278;52.110;6.050;2023-03-23T13:03:11;7.80;;;1.17;;
37411;SDS011;23278;52.110;6.050;2023-03-23T13:05:45;3.53;;;0.68;;
37411;SDS011;23278;52.110;6.050;2023-03-23T13:08:25;5.15;;;1.33;;
37411;SDS011;23278;52.110;6.050;2023-03-23T13:11:07;2.88;;;0.80;;
37411;SDS011;23278;52.110;6.050;2023-03-23T13:13:45;4.55;;;1.00;;
37411;SDS011;23278;52.110;6.050;2023-03-23T13:21:53;3.95;;;0.80;;
37411;SDS011;23278;52.110;6.050;2023-03-23T13:24:45;4.75;;;1.60;;
37411;SDS011;23278;52.110;6.050;2023-03-23T13:27:17;3.85;;;0.95;;
37411;SDS011;23278;52.110;6.050;2023-03-23T13:29:48;5.95;;;1.45;;
37411;SDS011;23278;52.110;6.050;2023-03-23T13:32:17;4.22;;;1.55;;
37411;SDS011;23278;52.110;6.050;2023-03-23T13:34:45;5.55;;;0.90;;
37411;SDS011;23278;52.110;6.050;2023-03-23T13:37:23;3.55;;;0.93;;
37411;SDS011;23278;52.110;6.050;2023-03-23T13:39:54;6.32;;;1.52;;
37411;SDS011;23278;52.110;6.050;2023-03-23T13:42:46;5.30;;;1.20;;
37411;SDS011;23278;52.110;6.050;2023-03-23T13:53:31;3.70;;;1.00;;
37411;SDS011;23278;52.110;6.050;2023-03-23T13:56:22;2.60;;;1.00;;
37411;SDS011;23278;52.110;6.050;2023-03-23T13:59:55;3.30;;;1.02;;
37411;SDS011;23278;52.110;6.050;2023-03-23T14:05:19;4.25;;;1.08;;
37411;SDS011;23278;52.110;6.050;2023-03-23T14:08:08;2.92;;;0.77;;
37411;SDS011;23278;52.110;6.050;2023-03-23T14:10:49;2.67;;;0.80;;
37411;SDS011;23278;52.110;6.050;2023-03-23T14:16:19;3.03;;;0.55;;
37411;SDS011;23278;52.110;6.050;2023-03-23T14:18:52;3.58;;;0.75;;
37411;SDS011;23278;52.110;6.050;2023-03-23T14:21:30;4.07;;;1.25;;
37411;SDS011;23278;52.110;6.050;2023-03-23T14:24:06;3.50;;;0.77;;
37411;SDS011;23278;52.110;6.050;2023-03-23T14:26:36;2.72;;;1.08;;
37411;SDS011;23278;52.110;6.050;2023-03-23T14:29:03;2.92;;;0.70;;
37411;SDS011;23278;52.110;6.050;2023-03-23T14:31:31;4.65;;;0.73;;
37411;SDS011;23278;52.110;6.050;2023-03-23T14:34:01;4.18;;;1.13;;
37411;SDS011;23278;52.110;6.050;2023-03-23T14:36:29;4.40;;;0.82;;
37411;SDS011;23278;52.110;6.050;2023-03-23T14:39:02;4.65;;;1.10;;
37411;SDS011;23278;52.110;6.050;2023-03-23T14:41:31;3.33;;;0.82;;
37411;SDS011;23278;52.110;6.050;2023-03-23T14:44:00;4.35;;;0.90;;
37411;SDS011;23278;52.110;6.050;2023-03-23T14:46:27;6.03;;;1.40;;
37411;SDS011;23278;52.110;6.050;2023-03-23T14:48:56;3.55;;;1.08;;
37411;SDS011;23278;52.110;6.050;2023-03-23T14:51:25;5.07;;;0.90;;
37411;SDS011;23278;52.110;6.050;2023-03-23T14:53:54;12.40;;;1.67;;
37411;SDS011;23278;52.110;6.050;2023-03-23T14:56:20;2.65;;;0.80;;
37411;SDS011;23278;52.110;6.050;2023-03-23T14:58:53;5.60;;;1.20;;
37411;SDS011;23278;52.110;6.050;2023-03-23T15:01:23;2.97;;;0.90;;
37411;SDS011;23278;52.110;6.050;2023-03-23T15:03:54;4.55;;;1.00;;
37411;SDS011;23278;52.110;6.050;2023-03-23T15:06:27;4.40;;;1.27;;
37411;SDS011;23278;52.110;6.050;2023-03-23T15:08:56;2.05;;;0.60;;
37411;SDS011;23278;52.110;6.050;2023-03-23T15:11:33;2.47;;;1.02;;
37411;SDS011;23278;52.110;6.050;2023-03-23T15:17:21;2.47;;;0.70;;
37411;SDS011;23278;52.110;6.050;2023-03-23T15:19:51;4.88;;;1.05;;
37411;SDS011;23278;52.110;6.050;2023-03-23T15:24:51;3.13;;;1.00;;
37411;SDS011;23278;52.110;6.050;2023-03-23T15:27:29;4.80;;;0.85;;
37411;SDS011;23278;52.110;6.050;2023-03-23T15:33:32;2.88;;;0.90;;
37411;SDS011;23278;52.110;6.050;2023-03-23T15:35:40;4.22;;;1.02;;
37411;SDS011;23278;52.110;6.050;2023-03-23T15:38:17;2.92;;;0.77;;
37411;SDS011;23278;52.110;6.050;2023-03-23T15:40:55;4.03;;;0.70;;
37411;SDS011;23278;52.110;6.050;2023-03-23T15:43:27;3.85;;;0.88;;
37411;SDS011;23278;52.110;6.050;2023-03-23T15:45:57;3.67;;;0.95;;
37411;SDS011;23278;52.110;6.050;2023-03-23T15:51:18;3.50;;;0.80;;
37411;SDS011;23278;52.110;6.050;2023-03-23T15:53:48;3.42;;;1.23;;
37411;SDS011;23278;52.110;6.050;2023-03-23T15:56:16;2.00;;;0.80;;
37411;SDS011;23278;52.110;6.050;2023-03-23T15:58:43;2.22;;;0.80;;
37411;SDS011;23278;52.110;6.050;2023-03-23T16:03:47;5.75;;;1.58;;
37411;SDS011;23278;52.110;6.050;2023-03-23T16:06:15;6.38;;;1.10;;
37411;SDS011;23278;52.110;6.050;2023-03-23T16:08:43;3.70;;;1.45;;
37411;SDS011;23278;52.110;6.050;2023-03-23T16:11:14;4.13;;;1.63;;
37411;SDS011;23278;52.110;6.050;2023-03-23T16:13:42;8.85;;;1.45;;
37411;SDS011;23278;52.110;6.050;2023-03-23T16:16:16;3.33;;;1.00;;
37411;SDS011;23278;52.110;6.050;2023-03-23T16:18:45;4.95;;;1.10;;
37411;SDS011;23278;52.110;6.050;2023-03-23T16:21:11;4.68;;;1.67;;
37411;SDS011;23278;52.110;6.050;2023-03-23T16:23:36;7.70;;;2.35;;
37411;SDS011;23278;52.110;6.050;2023-03-23T16:26:05;7.13;;;2.13;;
37411;SDS011;23278;52.110;6.050;2023-03-23T16:28:31;6.88;;;1.70;;
37411;SDS011;23278;52.110;6.050;2023-03-23T16:30:57;4.60;;;1.10;;
37411;SDS011;23278;52.110;6.050;2023-03-23T16:33:23;6.10;;;0.93;;
37411;SDS011;23278;52.110;6.050;2023-03-23T16:35:49;3.25;;;0.80;;
37411;SDS011;23278;52.110;6.050;2023-03-23T16:38:15;4.35;;;1.00;;
37411;SDS011;23278;52.110;6.050;2023-03-23T16:40:42;4.45;;;0.85;;
37411;SDS011;23278;52.110;6.050;2023-03-23T16:43:09;3.38;;;0.82;;
37411;SDS011;23278;52.110;6.050;2023-03-23T16:45:36;6.53;;;1.20;;
37411;SDS011;23278;52.110;6.050;2023-03-23T16:48:04;3.28;;;0.95;;
37411;SDS011;23278;52.110;6.050;2023-03-23T16:50:31;2.92;;;0.90;;
37411;SDS011;23278;52.110;6.050;2023-03-23T16:52:57;3.75;;;1.40;;
37411;SDS011;23278;52.110;6.050;2023-03-23T16:55:23;3.85;;;0.90;;
37411;SDS011;23278;52.110;6.050;2023-03-23T16:57:51;3.20;;;0.93;;
37411;SDS011;23278;52.110;6.050;2023-03-23T17:00:18;5.32;;;1.58;;
37411;SDS011;23278;52.110;6.050;2023-03-23T17:02:45;3.90;;;1.58;;
37411;SDS011;23278;52.110;6.050;2023-03-23T17:05:12;7.15;;;1.48;;
37411;SDS011;23278;52.110;6.050;2023-03-23T17:07:40;5.40;;;1.17;;
37411;SDS011;23278;52.110;6.050;2023-03-23T17:10:07;2.60;;;1.27;;
37411;SDS011;23278;52.110;6.050;2023-03-23T17:12:35;4.15;;;1.10;;
37411;SDS011;23278;52.110;6.050;2023-03-23T17:15:01;5.18;;;1.75;;
37411;SDS011;23278;52.110;6.050;2023-03-23T17:17:28;4.35;;;0.63;;
37411;SDS011;23278;52.110;6.050;2023-03-23T17:19:54;5.75;;;1.20;;
37411;SDS011;23278;52.110;6.050;2023-03-23T17:22:20;5.18;;;1.67;;
37411;SDS011;23278;52.110;6.050;2023-03-23T17:24:46;5.68;;;0.98;;
37411;SDS011;23278;52.110;6.050;2023-03-23T17:27:13;6.20;;;1.27;;
37411;SDS011;23278;52.110;6.050;2023-03-23T17:29:44;4.95;;;1.15;;
37411;SDS011;23278;52.110;6.050;2023-03-23T17:32:10;4.63;;;1.13;;